createdAt,value
2022-09-28T00:02:09.475Z,3.60
2022-09-28T00:05:27.173Z,2.80
2022-09-28T00:09:06.329Z,5.00
2022-09-28T00:12:43.744Z,3.00
2022-09-28T00:16:24.174Z,2.80
2022-09-28T00:20:02.868Z,3.20
2022-09-28T00:23:42.040Z,4.50
2022-09-28T00:27:20.474Z,2.50
2022-09-28T00:30:59.869Z,2.20
2022-09-28T00:34:40.545Z,1.10
2022-09-28T00:38:20.016Z,3.10
2022-09-28T00:41:57.224Z,2.50
2022-09-28T00:45:36.185Z,3.40
2022-09-28T00:49:19.003Z,1.40
2022-09-28T00:53:23.996Z,3.00
2022-09-28T00:57:04.014Z,2.20
2022-09-28T01:00:42.966Z,2.00
2022-09-28T01:04:23.522Z,5.90
2022-09-28T01:08:04.756Z,2.20
2022-09-28T01:11:43.462Z,4.50
2022-09-28T01:15:21.792Z,1.60
2022-09-28T01:19:32.595Z,1.40
2022-09-28T01:23:58.094Z,2.40
2022-09-28T01:28:10.326Z,4.60
2022-09-28T01:31:56.857Z,2.70
2022-09-28T01:35:50.765Z,4.20
2022-09-28T01:39:35.847Z,1.80
2022-09-28T01:43:28.101Z,3.40
2022-09-28T01:47:11.047Z,1.60
2022-09-28T01:50:54.129Z,3.50
2022-09-28T01:54:43.566Z,1.50
2022-09-28T01:58:38.301Z,0.90
2022-09-28T02:02:20.080Z,3.30
2022-09-28T02:06:06.328Z,4.00
2022-09-28T02:10:03.836Z,2.10
2022-09-28T02:13:59.334Z,3.20
2022-09-28T02:17:36.537Z,1.90
2022-09-28T02:21:32.732Z,1.80
2022-09-28T02:25:38.764Z,3.80
2022-09-28T02:29:16.405Z,2.80
2022-09-28T02:32:58.410Z,2.20
2022-09-28T02:36:35.938Z,1.40
2022-09-28T02:40:29.084Z,3.90
2022-09-28T02:44:40.109Z,2.40
2022-09-28T02:48:44.143Z,2.30
2022-09-28T02:52:38.319Z,1.40
2022-09-28T02:56:24.351Z,1.20
2022-09-28T03:00:20.230Z,2.50
2022-09-28T03:04:09.535Z,2.00
2022-09-28T03:08:21.307Z,2.30
2022-09-28T03:12:08.405Z,1.80
2022-09-28T03:15:48.510Z,1.40
2022-09-28T03:19:30.879Z,1.20
2022-09-28T03:23:25.039Z,3.90
2022-09-28T03:27:04.168Z,0.80
2022-09-28T03:30:42.062Z,3.10
2022-09-28T03:34:19.401Z,2.20
2022-09-28T03:37:57.556Z,3.70
2022-09-28T03:41:36.214Z,3.30
2022-09-28T03:45:14.581Z,4.50
2022-09-28T03:48:51.513Z,1.70
2022-09-28T03:52:28.588Z,1.80
2022-09-28T03:56:13.490Z,2.30
2022-09-28T03:59:52.183Z,1.10
2022-09-28T04:03:29.956Z,1.00
2022-09-28T04:07:09.366Z,1.20
2022-09-28T04:10:46.832Z,2.20
2022-09-28T04:14:24.118Z,2.20
2022-09-28T04:18:01.266Z,0.80
2022-09-28T04:21:39.274Z,3.10
2022-09-28T04:25:18.044Z,1.60
2022-09-28T04:28:55.191Z,1.50
2022-09-28T04:32:33.565Z,1.20
2022-09-28T04:36:11.282Z,1.60
2022-09-28T04:39:49.288Z,4.70
2022-09-28T04:43:27.375Z,2.00
2022-09-28T04:47:07.174Z,2.20
2022-09-28T04:50:44.070Z,2.40
2022-09-28T04:54:22.753Z,2.30
2022-09-28T04:58:00.109Z,2.30
2022-09-28T05:01:39.720Z,2.70
2022-09-28T05:05:16.967Z,0.90
2022-09-28T05:08:57.716Z,2.30
2022-09-28T05:12:35.523Z,2.70
2022-09-28T05:16:15.632Z,1.50
2022-09-28T05:19:53.716Z,2.90
2022-09-28T05:23:31.886Z,2.30
2022-09-28T05:27:14.458Z,1.40
2022-09-28T05:30:52.279Z,1.90
2022-09-28T05:34:30.053Z,1.40
2022-09-28T05:38:07.736Z,2.30
2022-09-28T05:41:45.819Z,2.00
2022-09-28T05:45:23.930Z,2.90
2022-09-28T05:49:00.808Z,1.20
2022-09-28T05:52:41.431Z,4.10
2022-09-28T05:56:25.237Z,2.50
2022-09-28T06:00:07.966Z,5.40
2022-09-28T06:03:47.363Z,2.70
2022-09-28T06:07:24.689Z,4.50
2022-09-28T06:11:02.945Z,1.60
2022-09-28T06:14:40.960Z,3.90
2022-09-28T06:18:19.458Z,4.90
2022-09-28T06:21:59.378Z,1.80
2022-09-28T06:25:37.157Z,2.70
2022-09-28T06:29:18.675Z,1.60
2022-09-28T06:32:58.481Z,1.80
2022-09-28T06:36:37.348Z,2.10
2022-09-28T06:40:14.980Z,4.80
2022-09-28T06:43:53.052Z,2.80
2022-09-28T06:47:31.966Z,3.30
2022-09-28T06:51:08.908Z,1.70
2022-09-28T06:54:45.841Z,1.50
2022-09-28T06:58:43.359Z,1.80
2022-09-28T07:02:03.376Z,2.00
2022-09-28T07:05:40.092Z,3.30
2022-09-28T07:09:31.613Z,2.40
2022-09-28T07:13:35.020Z,3.90
2022-09-28T07:17:14.183Z,1.80
2022-09-28T07:20:54.674Z,1.50
2022-09-28T07:24:31.849Z,1.40
2022-09-28T07:28:28.953Z,2.50
2022-09-28T07:31:47.179Z,0.90
2022-09-28T07:35:25.252Z,5.80
2022-09-28T07:39:03.606Z,3.20
2022-09-28T07:42:41.971Z,4.00
2022-09-28T07:46:19.543Z,1.60
2022-09-28T07:49:57.758Z,3.00
2022-09-28T07:53:36.369Z,3.70
2022-09-28T07:57:15.507Z,2.20
2022-09-28T08:00:52.957Z,2.80
2022-09-28T08:04:31.328Z,7.20
2022-09-28T08:08:10.479Z,4.70
2022-09-28T08:11:48.681Z,2.20
2022-09-28T08:15:27.053Z,2.50
2022-09-28T08:19:05.666Z,3.40
2022-09-28T08:22:42.828Z,2.70
2022-09-28T08:26:22.012Z,2.90
2022-09-28T08:29:59.247Z,1.80
2022-09-28T08:33:36.736Z,2.90
2022-09-28T08:37:14.215Z,3.20
2022-09-28T08:41:18.457Z,2.00
2022-09-28T08:45:06.490Z,1.80
2022-09-28T08:49:13.539Z,1.00
2022-09-28T08:52:59.823Z,2.30
2022-09-28T08:56:57.292Z,6.90
2022-09-28T09:00:52.879Z,1.10
2022-09-28T09:04:33.973Z,3.60
2022-09-28T09:08:25.464Z,1.10
2022-09-28T09:12:31.219Z,1.50
2022-09-28T09:16:12.337Z,2.50
2022-09-28T09:19:58.844Z,1.50
2022-09-28T09:23:57.446Z,3.20
2022-09-28T09:28:07.001Z,2.90
2022-09-28T09:31:49.148Z,2.20
2022-09-28T09:35:48.510Z,1.10
2022-09-28T09:39:38.788Z,1.00
2022-09-28T09:44:13.537Z,1.40
2022-09-28T09:48:02.665Z,1.70
2022-09-28T09:52:06.458Z,3.50
2022-09-28T09:55:51.697Z,2.70
2022-09-28T09:59:37.941Z,1.90
2022-09-28T10:03:30.459Z,3.20
2022-09-28T10:07:14.853Z,3.70
2022-09-28T10:11:07.550Z,7.30
2022-09-28T10:14:48.710Z,3.40
2022-09-28T10:18:27.401Z,1.30
2022-09-28T10:22:14.164Z,4.30
2022-09-28T10:25:43.490Z,3.80
2022-09-28T10:29:26.790Z,2.40
2022-09-28T10:33:03.998Z,1.30
2022-09-28T10:37:06.988Z,2.40
2022-09-28T10:40:47.595Z,3.80
2022-09-28T10:44:25.447Z,2.70
2022-09-28T10:48:20.837Z,2.20
2022-09-28T10:51:52.598Z,2.30
2022-09-28T10:55:27.088Z,2.10
2022-09-28T10:59:28.700Z,8.00
2022-09-28T11:03:23.459Z,4.10
2022-09-28T11:07:01.936Z,1.60
2022-09-28T11:10:38.793Z,1.70
2022-09-28T11:14:42.696Z,2.10
2022-09-28T11:17:53.855Z,2.60
2022-09-28T11:21:43.466Z,2.90
2022-09-28T11:25:32.018Z,1.50
2022-09-28T11:29:36.781Z,1.20
2022-09-28T11:33:18.987Z,1.70
2022-09-28T11:37:24.072Z,4.90
2022-09-28T11:41:07.737Z,1.50
2022-09-28T11:45:31.825Z,2.20
2022-09-28T11:48:29.109Z,2.70
2022-09-28T11:52:32.594Z,3.00
2022-09-28T11:56:40.409Z,1.60
2022-09-28T12:00:22.179Z,2.40
2022-09-28T12:04:09.524Z,1.00
2022-09-28T12:07:53.982Z,3.10
2022-09-28T12:11:36.561Z,1.60
2022-09-28T12:15:19.607Z,3.40
2022-09-28T12:19:04.615Z,2.20
2022-09-28T12:22:55.705Z,1.90
2022-09-28T12:26:38.982Z,5.70
2022-09-28T12:30:21.365Z,1.60
2022-09-28T12:33:58.313Z,3.00
2022-09-28T12:37:46.318Z,2.80
2022-09-28T12:41:35.173Z,1.70
2022-09-28T12:45:23.005Z,3.70
2022-09-28T12:53:59.788Z,1.00
2022-09-28T12:58:31.057Z,5.00
2022-09-28T13:01:33.339Z,6.50
2022-09-28T13:05:31.597Z,2.00
2022-09-28T13:09:22.658Z,1.60
2022-09-28T13:12:51.576Z,3.90
2022-09-28T13:16:10.600Z,3.30
2022-09-28T13:20:03.025Z,1.90
2022-09-28T13:23:34.019Z,1.70
2022-09-28T13:27:32.122Z,4.10
2022-09-28T13:31:20.306Z,1.90
2022-09-28T13:34:50.638Z,2.30
2022-09-28T13:38:31.079Z,1.70
2022-09-28T13:42:47.249Z,1.10
2022-09-28T13:45:59.399Z,1.70
2022-09-28T13:49:57.333Z,2.90
2022-09-28T13:54:12.735Z,3.70
2022-09-28T13:57:40.054Z,4.80
2022-09-28T14:01:25.477Z,4.30
2022-09-28T14:05:21.880Z,3.40
2022-09-28T14:09:07.462Z,2.40
2022-09-28T14:12:46.720Z,1.80
2022-09-28T14:16:26.492Z,0.40
2022-09-28T14:20:16.955Z,0.60
2022-09-28T14:24:24.102Z,0.70
2022-09-28T14:27:53.463Z,3.40
2022-09-28T14:31:28.649Z,2.10
2022-09-28T14:35:18.786Z,1.70
2022-09-28T14:38:56.665Z,3.00
2022-09-28T14:42:34.127Z,3.30
2022-09-28T14:46:13.986Z,2.00
2022-09-28T14:50:01.739Z,2.70
2022-09-28T14:53:50.081Z,6.30
2022-09-28T14:57:29.632Z,8.20
2022-09-28T15:01:02.504Z,2.20
2022-09-28T15:04:51.890Z,5.50
2022-09-28T15:08:21.214Z,5.80
2022-09-28T15:12:13.009Z,3.20
2022-09-28T15:16:04.609Z,0.70
2022-09-28T15:20:17.700Z,3.20
2022-09-28T15:23:40.389Z,2.20
2022-09-28T15:37:42.561Z,2.40
2022-09-28T15:40:38.134Z,1.90
2022-09-28T15:44:37.813Z,7.70
2022-09-28T15:48:48.703Z,7.30
2022-09-28T15:52:30.719Z,6.70
2022-09-28T15:56:12.506Z,7.30
2022-09-28T16:00:21.095Z,7.40
2022-09-28T16:03:29.880Z,5.00
2022-09-28T16:07:13.104Z,7.60
2022-09-28T16:11:15.531Z,7.80
2022-09-28T16:14:55.961Z,9.00
2022-09-28T16:18:35.209Z,9.70
2022-09-28T16:22:23.442Z,5.80
2022-09-28T16:26:06.007Z,13.40
2022-09-28T16:30:04.418Z,6.00
2022-09-28T16:33:30.608Z,10.20
2022-09-28T16:37:31.459Z,7.60
2022-09-28T16:41:09.600Z,12.10
2022-09-28T16:44:47.727Z,9.10
2022-09-28T16:48:30.649Z,10.00
2022-09-28T16:52:12.317Z,10.80
2022-09-28T16:55:53.481Z,11.70
2022-09-28T16:59:26.208Z,12.60
2022-09-28T17:03:14.363Z,16.60
2022-09-28T17:06:41.197Z,12.60
2022-09-28T17:10:27.884Z,11.90
2022-09-28T17:14:05.637Z,11.00
2022-09-28T17:17:42.642Z,14.30
2022-09-28T17:21:21.153Z,12.00
2022-09-28T17:25:00.555Z,18.50
2022-09-28T17:28:37.964Z,7.10
2022-09-28T17:32:19.208Z,10.20
2022-09-28T17:36:03.164Z,9.00
2022-09-28T17:39:42.479Z,7.80
2022-09-28T17:43:19.984Z,8.00
2022-09-28T17:47:02.135Z,6.10
2022-09-28T17:50:44.347Z,7.60
2022-09-28T17:54:23.439Z,10.00
2022-09-28T17:58:02.235Z,6.30
2022-09-28T18:02:02.012Z,5.00
2022-09-28T18:09:34.978Z,3.80
2022-09-28T18:13:14.645Z,7.70
2022-09-28T18:16:52.763Z,8.30
2022-09-28T18:20:31.228Z,4.10
2022-09-28T18:24:08.385Z,5.70
2022-09-28T18:27:46.264Z,4.30
2022-09-28T18:31:24.233Z,4.60
2022-09-28T18:35:01.613Z,5.20
2022-09-28T18:38:39.374Z,5.40
2022-09-28T18:42:17.219Z,4.50
2022-09-28T18:45:54.953Z,5.40
2022-09-28T18:49:31.927Z,4.70
2022-09-28T18:53:11.340Z,2.40
2022-09-28T18:56:49.104Z,7.20
2022-09-28T19:00:46.818Z,4.50
2022-09-28T19:04:05.702Z,9.00
2022-09-28T19:07:43.837Z,11.00
2022-09-28T19:11:22.403Z,6.20
2022-09-28T19:15:09.723Z,8.90
2022-09-28T19:18:47.757Z,7.90
2022-09-28T19:22:24.500Z,7.30
2022-09-28T19:26:03.104Z,4.90
2022-09-28T19:29:41.418Z,5.10
2022-09-28T19:33:18.671Z,7.40
2022-09-28T19:36:55.403Z,9.30
2022-09-28T19:40:36.524Z,6.00
2022-09-28T19:44:16.375Z,5.00
2022-09-28T19:47:58.682Z,4.90
2022-09-28T19:51:38.782Z,5.90
2022-09-28T19:55:21.571Z,1.80
2022-09-28T19:59:03.752Z,3.70
2022-09-28T20:02:42.312Z,2.70
2022-09-28T20:06:19.205Z,9.90
2022-09-28T20:09:56.357Z,4.40
2022-09-28T20:13:36.883Z,6.00
2022-09-28T20:17:16.350Z,5.40
2022-09-28T20:21:05.147Z,4.60
2022-09-28T20:24:41.804Z,4.70
2022-09-28T20:28:19.368Z,6.60
2022-09-28T20:31:58.279Z,8.20
2022-09-28T20:35:35.101Z,4.80
2022-09-28T20:39:13.890Z,4.50
2022-09-28T20:42:51.856Z,4.90
2022-09-28T20:46:30.115Z,5.60
2022-09-28T20:50:07.971Z,7.50
2022-09-28T20:53:54.325Z,7.70
2022-09-28T20:57:31.724Z,4.90
2022-09-28T21:01:17.546Z,6.60
2022-09-28T21:04:54.411Z,4.50
2022-09-28T21:08:31.664Z,4.40
2022-09-28T21:12:10.170Z,8.50
2022-09-28T21:15:48.966Z,2.80
2022-09-28T21:19:26.507Z,3.90
2022-09-28T21:23:03.519Z,2.70
2022-09-28T21:26:41.307Z,5.80
2022-09-28T21:30:19.462Z,7.80
2022-09-28T21:34:00.319Z,4.50
2022-09-28T21:37:34.402Z,3.60
2022-09-28T21:41:11.634Z,4.90
2022-09-28T21:44:49.268Z,4.30
2022-09-28T21:48:27.694Z,7.10
2022-09-28T21:52:06.482Z,5.30
2022-09-28T21:55:43.837Z,7.20
2022-09-28T21:59:21.710Z,5.10
2022-09-28T22:02:59.948Z,6.30
2022-09-28T22:06:37.418Z,4.60
2022-09-28T22:10:15.408Z,4.90
2022-09-28T22:13:55.529Z,5.20
2022-09-28T22:17:34.938Z,8.60
2022-09-28T22:21:15.798Z,5.30
2022-09-28T22:24:54.456Z,5.40
2022-09-28T22:28:31.795Z,4.00
2022-09-28T22:32:09.577Z,5.70
2022-09-28T22:35:49.508Z,4.10
2022-09-28T22:39:27.651Z,3.90
2022-09-28T22:43:04.553Z,5.40
2022-09-28T22:46:42.306Z,3.80
2022-09-28T22:50:20.282Z,3.80
2022-09-28T22:53:58.606Z,6.60
2022-09-28T22:57:36.535Z,3.90
2022-09-28T23:01:23.177Z,4.30
2022-09-28T23:05:01.037Z,5.30
2022-09-28T23:08:38.781Z,4.50
2022-09-28T23:12:16.153Z,2.90
2022-09-28T23:16:03.183Z,5.20
2022-09-28T23:19:41.979Z,5.60
2022-09-28T23:23:19.868Z,4.60
2022-09-28T23:26:58.177Z,4.10
2022-09-28T23:30:36.437Z,5.40
2022-09-28T23:34:14.026Z,3.60
2022-09-28T23:37:51.238Z,5.00
2022-09-28T23:41:29.613Z,4.90
2022-09-28T23:45:08.607Z,4.40
2022-09-28T23:48:46.517Z,5.90
2022-09-28T23:52:25.516Z,3.10
2022-09-28T23:56:02.420Z,5.00
2022-09-28T23:59:39.801Z,2.90
